LFLS 181530Z AUTO 33012KT 9999 FEW031 BKN054 BKN070 22/16 Q1013 TEMPO 3000 TSRA SCT035CB BKN050

ElémentsDécodage
LFLS Station météo située sur l'aérodrome de GRENOBLE Saint-Geoirs
181530Z émis le 18 du mois à 15h30 UTC
AUTO Bulletin édité par un automate
33012KT vent du 330°, 12 noeuds
9999 visibilité horizontale supérieure à 10 Km
FEW031 nuages rares (1/8 à 2/8) à 3100 pieds
BKN054 nuages morcelés (5/8 à 7/8) à 5400 pieds
BKN070 nuages morcelés (5/8 à 7/8) à 7000 pieds
22/16 température 22°C, point de rosée 16°C
 soit une humidité relative de 69%
Q1013 la pression au niveau de la mer (QNH) est de 1013 hPa
TEMPO fluctuation temporaire prévue
3000 visibilité horizontale de 3000 mètres
TSRA pluie d'orage
SCT035CB nuages épars (3/8 à 4/8) à 3500 pieds
 présence de cumulonimbus
BKN050 nuages morcelés (5/8 à 7/8) à 5000 pieds